createdAt,value
2022-09-20T00:00:52.981Z,1016.98
2022-09-20T00:01:52.997Z,1016.93
2022-09-20T00:02:52.974Z,1016.94
2022-09-20T00:03:52.973Z,1016.96
2022-09-20T00:04:53.081Z,1016.98
2022-09-20T00:05:52.966Z,1016.96
2022-09-20T00:06:52.982Z,1017.01
2022-09-20T00:07:52.977Z,1017.02
2022-09-20T00:08:52.968Z,1017.01
2022-09-20T00:09:52.968Z,1016.98
2022-09-20T00:10:52.975Z,1017.02
2022-09-20T00:11:52.986Z,1017.04
2022-09-20T00:12:52.973Z,1017.06
2022-09-20T00:13:53.114Z,1017.04
2022-09-20T00:14:52.971Z,1017.04
2022-09-20T00:15:52.974Z,1017.02
2022-09-20T00:16:53.054Z,1017.07
2022-09-20T00:17:52.982Z,1017.04
2022-09-20T00:18:52.978Z,1017.05
2022-09-20T00:19:52.990Z,1017.04
2022-09-20T00:20:52.985Z,1017.04
2022-09-20T00:21:53.006Z,1017.07
2022-09-20T00:22:52.979Z,1017.09
2022-09-20T00:23:52.984Z,1017.07
2022-09-20T00:24:53.004Z,1017.05
2022-09-20T00:25:52.988Z,1017.05
2022-09-20T00:26:53.000Z,1017.06
2022-09-20T00:27:52.982Z,1017.1
2022-09-20T00:28:53.067Z,1017.09
2022-09-20T00:29:52.980Z,1017.08
2022-09-20T00:30:53.010Z,1017.07
2022-09-20T00:31:53.051Z,1017.08
2022-09-20T00:32:52.995Z,1017.08
2022-09-20T00:33:52.981Z,1017.04
2022-09-20T00:34:52.996Z,1017.14
2022-09-20T00:35:52.979Z,1017.1
2022-09-20T00:36:52.996Z,1017.14
2022-09-20T00:37:52.980Z,1017.12
2022-09-20T00:38:53.055Z,1017.17
2022-09-20T00:39:52.974Z,1017.16
2022-09-20T00:40:52.977Z,1017.16
2022-09-20T00:41:53.015Z,1017.17
2022-09-20T00:42:52.974Z,1017.18
2022-09-20T00:43:52.979Z,1017.16
2022-09-20T00:44:52.989Z,1017.12
2022-09-20T00:45:53.041Z,1017.15
2022-09-20T00:46:52.995Z,1017.2
2022-09-20T00:47:52.980Z,1017.21
2022-09-20T00:48:52.984Z,1017.17
2022-09-20T00:49:52.993Z,1017.19
2022-09-20T00:50:52.980Z,1017.21
2022-09-20T00:51:52.992Z,1017.17
2022-09-20T00:52:53.001Z,1017.19
2022-09-20T00:53:52.984Z,1017.2
2022-09-20T00:54:52.981Z,1017.23
2022-09-20T00:55:52.987Z,1017.21
2022-09-20T00:56:53.009Z,1017.22
2022-09-20T00:57:52.996Z,1017.2
2022-09-20T00:58:53.073Z,1017.23
2022-09-20T00:59:52.972Z,1017.26
2022-09-20T01:00:52.993Z,1017.27
2022-09-20T01:01:53.086Z,1017.32
2022-09-20T01:02:52.972Z,1017.29
2022-09-20T01:03:52.971Z,1017.28
2022-09-20T01:04:52.998Z,1017.29
2022-09-20T01:05:52.980Z,1017.32
2022-09-20T01:06:52.997Z,1017.33
2022-09-20T01:07:52.984Z,1017.41
2022-09-20T01:08:53.021Z,1017.35
2022-09-20T01:09:52.990Z,1017.38
2022-09-20T01:10:52.971Z,1017.38
2022-09-20T01:11:53.026Z,1017.43
2022-09-20T01:12:52.971Z,1017.39
2022-09-20T01:13:52.991Z,1017.4
2022-09-20T01:14:52.966Z,1017.44
2022-09-20T01:15:52.971Z,1017.38
2022-09-20T01:16:53.060Z,1017.41
2022-09-20T01:17:52.967Z,1017.46
2022-09-20T01:18:52.965Z,1017.42
2022-09-20T01:19:52.985Z,1017.37
2022-09-20T01:20:52.975Z,1017.37
2022-09-20T01:21:52.993Z,1017.43
2022-09-20T01:22:52.966Z,1017.39
2022-09-20T01:23:52.969Z,1017.4
2022-09-20T01:24:52.969Z,1017.4
2022-09-20T01:25:52.997Z,1017.42
2022-09-20T01:26:52.999Z,1017.39
2022-09-20T01:27:52.973Z,1017.37
2022-09-20T01:28:53.107Z,1017.37
2022-09-20T01:29:52.993Z,1017.35
2022-09-20T01:30:52.980Z,1017.34
2022-09-20T01:31:53.094Z,1017.38
2022-09-20T01:32:52.977Z,1017.4
2022-09-20T01:33:52.983Z,1017.38
2022-09-20T01:34:52.994Z,1017.36
2022-09-20T01:35:52.989Z,1017.36
2022-09-20T01:36:53.020Z,1017.35
2022-09-20T01:37:52.993Z,1017.33
2022-09-20T01:38:52.990Z,1017.35
2022-09-20T01:39:52.988Z,1017.36
2022-09-20T01:40:52.986Z,1017.37
2022-09-20T01:41:53.007Z,1017.36
2022-09-20T01:42:52.988Z,1017.39
2022-09-20T01:43:53.114Z,1017.41
2022-09-20T01:44:52.989Z,1017.41
2022-09-20T01:45:53.035Z,1017.43
2022-09-20T01:46:53.016Z,1017.44
2022-09-20T01:47:52.990Z,1017.45
2022-09-20T01:48:52.994Z,1017.42
2022-09-20T01:49:53.022Z,1017.46
2022-09-20T01:50:52.985Z,1017.53
2022-09-20T01:51:53.002Z,1017.53
2022-09-20T01:52:53.003Z,1017.53
2022-09-20T01:53:52.981Z,1017.56
2022-09-20T01:54:52.989Z,1017.6
2022-09-20T01:55:52.993Z,1017.56
2022-09-20T01:56:53.041Z,1017.62
2022-09-20T01:57:52.979Z,1017.6
2022-09-20T01:59:12.541Z,1017.61
2022-09-20T01:59:52.987Z,1017.61
2022-09-20T02:00:53.039Z,1017.64
2022-09-20T02:01:53.093Z,1017.64
2022-09-20T02:02:53.013Z,1017.61
2022-09-20T02:03:52.983Z,1017.64
2022-09-20T02:04:53.005Z,1017.65
2022-09-20T02:05:52.991Z,1017.64
2022-09-20T02:06:53.008Z,1017.64
2022-09-20T02:07:52.993Z,1017.65
2022-09-20T02:08:53.103Z,1017.67
2022-09-20T02:09:52.983Z,1017.6
2022-09-20T02:10:52.984Z,1017.63
2022-09-20T02:11:53.011Z,1017.63
2022-09-20T02:12:53.005Z,1017.59
2022-09-20T02:13:52.993Z,1017.6
2022-09-20T02:14:52.977Z,1017.6
2022-09-20T02:15:52.989Z,1017.6
2022-09-20T02:16:53.062Z,1017.58
2022-09-20T02:17:52.998Z,1017.58
2022-09-20T02:18:52.984Z,1017.6
2022-09-20T02:19:53.010Z,1017.6
2022-09-20T02:20:53.003Z,1017.6
2022-09-20T02:21:52.990Z,1017.6
2022-09-20T02:22:53.059Z,1017.6
2022-09-20T02:23:52.978Z,1017.63
2022-09-20T02:24:52.979Z,1017.67
2022-09-20T02:25:52.983Z,1017.68
2022-09-20T02:26:52.992Z,1017.65
2022-09-20T02:27:52.977Z,1017.68
2022-09-20T02:28:52.980Z,1017.63
2022-09-20T02:29:52.981Z,1017.65
2022-09-20T02:30:52.985Z,1017.59
2022-09-20T02:31:53.038Z,1017.57
2022-09-20T02:32:52.981Z,1017.6
2022-09-20T02:33:52.977Z,1017.58
2022-09-20T02:34:53.001Z,1017.58
2022-09-20T02:35:52.981Z,1017.57
2022-09-20T02:36:53.002Z,1017.62
2022-09-20T02:37:52.996Z,1017.65
2022-09-20T02:38:53.086Z,1017.65
2022-09-20T02:39:52.991Z,1017.67
2022-09-20T02:40:52.985Z,1017.67
2022-09-20T02:41:53.004Z,1017.68
2022-09-20T02:42:53.011Z,1017.69
2022-09-20T02:43:52.993Z,1017.7
2022-09-20T02:44:52.989Z,1017.65
2022-09-20T02:45:53.072Z,1017.68
2022-09-20T02:46:53.007Z,1017.67
2022-09-20T02:47:52.991Z,1017.67
2022-09-20T02:48:52.991Z,1017.71
2022-09-20T02:49:53.004Z,1017.7
2022-09-20T02:50:52.991Z,1017.66
2022-09-20T02:51:53.008Z,1017.7
2022-09-20T02:52:52.989Z,1017.65
2022-09-20T02:53:53.031Z,1017.68
2022-09-20T02:54:52.985Z,1017.65
2022-09-20T02:55:52.993Z,1017.64
2022-09-20T02:56:53.016Z,1017.65
2022-09-20T02:57:52.981Z,1017.67
2022-09-20T02:58:52.992Z,1017.64
2022-09-20T02:59:52.984Z,1017.66
2022-09-20T03:00:53.032Z,1017.62
2022-09-20T03:01:53.065Z,1017.65
2022-09-20T03:02:52.990Z,1017.64
2022-09-20T03:03:52.999Z,1017.67
2022-09-20T03:04:53.004Z,1017.71
2022-09-20T03:05:52.994Z,1017.69
2022-09-20T03:06:52.998Z,1017.69
2022-09-20T03:07:52.979Z,1017.68
2022-09-20T03:08:53.041Z,1017.72
2022-09-20T03:09:52.983Z,1017.72
2022-09-20T03:10:52.998Z,1017.72
2022-09-20T03:11:53.010Z,1017.76
2022-09-20T03:12:52.995Z,1017.74
2022-09-20T03:13:53.025Z,1017.73
2022-09-20T03:14:52.989Z,1017.73
2022-09-20T03:15:52.992Z,1017.72
2022-09-20T03:16:53.101Z,1017.73
2022-09-20T03:17:52.977Z,1017.74
2022-09-20T03:18:52.996Z,1017.7
2022-09-20T03:19:53.071Z,1017.72
2022-09-20T03:20:52.997Z,1017.72
2022-09-20T03:21:53.016Z,1017.72
2022-09-20T03:22:52.995Z,1017.73
2022-09-20T03:23:53.074Z,1017.73
2022-09-20T03:24:52.990Z,1017.72
2022-09-20T03:25:52.981Z,1017.74
2022-09-20T03:26:53.002Z,1017.72
2022-09-20T03:27:52.997Z,1017.73
2022-09-20T03:28:52.993Z,1017.76
2022-09-20T03:30:07.706Z,1017.76
2022-09-20T03:31:05.848Z,1017.74
2022-09-20T03:32:05.915Z,1017.74
2022-09-20T03:33:05.843Z,1017.71
2022-09-20T03:34:05.864Z,1017.74
2022-09-20T03:35:05.846Z,1017.74
2022-09-20T03:36:05.826Z,1017.72
2022-09-20T03:37:05.841Z,1017.72
2022-09-20T03:38:05.841Z,1017.74
2022-09-20T03:39:05.833Z,1017.78
2022-09-20T03:40:05.850Z,1017.74
2022-09-20T03:41:05.823Z,1017.79
2022-09-20T03:42:05.851Z,1017.8
2022-09-20T03:43:05.828Z,1017.79
2022-09-20T03:44:06.014Z,1017.8
2022-09-20T03:45:05.842Z,1017.74
2022-09-20T03:46:05.910Z,1017.79
2022-09-20T03:47:05.835Z,1017.78
2022-09-20T03:48:05.829Z,1017.76
2022-09-20T03:49:05.821Z,1017.71
2022-09-20T03:50:05.844Z,1017.7
2022-09-20T03:51:05.827Z,1017.68
2022-09-20T03:52:05.831Z,1017.7
2022-09-20T03:53:05.830Z,1017.71
2022-09-20T03:54:05.821Z,1017.71
2022-09-20T03:55:05.832Z,1017.71
2022-09-20T03:56:05.820Z,1017.71
2022-09-20T03:57:05.833Z,1017.73
2022-09-20T03:58:08.890Z,1017.7
2022-09-20T03:59:05.930Z,1017.72
2022-09-20T04:00:05.813Z,1017.73
2022-09-20T04:01:05.897Z,1017.69
2022-09-20T04:02:05.967Z,1017.73
2022-09-20T04:03:05.831Z,1017.7
2022-09-20T04:04:05.818Z,1017.69
2022-09-20T04:05:05.876Z,1017.73
2022-09-20T04:06:05.823Z,1017.71
2022-09-20T04:07:05.832Z,1017.68
2022-09-20T04:08:05.832Z,1017.71
2022-09-20T04:09:05.822Z,1017.71
2022-09-20T04:10:05.815Z,1017.7
2022-09-20T04:11:05.820Z,1017.7
2022-09-20T04:12:05.825Z,1017.71
2022-09-20T04:13:05.815Z,1017.76
2022-09-20T04:14:10.604Z,1017.73
2022-09-20T04:15:05.819Z,1017.73
2022-09-20T04:16:05.928Z,1017.71
2022-09-20T04:17:05.938Z,1017.71
2022-09-20T04:18:05.811Z,1017.7
2022-09-20T04:19:05.815Z,1017.72
2022-09-20T04:20:05.831Z,1017.68
2022-09-20T04:21:05.812Z,1017.68
2022-09-20T04:22:05.820Z,1017.71
2022-09-20T04:23:05.811Z,1017.73
2022-09-20T04:24:05.819Z,1017.74
2022-09-20T04:25:05.815Z,1017.71
2022-09-20T04:26:05.799Z,1017.77
2022-09-20T04:27:05.827Z,1017.71
2022-09-20T04:28:05.823Z,1017.76
2022-09-20T04:29:05.896Z,1017.8
2022-09-20T04:30:05.825Z,1017.79
2022-09-20T04:31:05.826Z,1017.79
2022-09-20T04:32:05.911Z,1017.77
2022-09-20T04:33:05.827Z,1017.73
2022-09-20T04:34:05.826Z,1017.8
2022-09-20T04:35:05.839Z,1017.73
2022-09-20T04:36:05.813Z,1017.77
2022-09-20T04:37:05.832Z,1017.8
2022-09-20T04:38:05.818Z,1017.81
2022-09-20T04:39:05.824Z,1017.8
2022-09-20T04:40:05.882Z,1017.83
2022-09-20T04:41:05.832Z,1017.84
2022-09-20T04:42:05.826Z,1017.85
2022-09-20T04:43:05.810Z,1017.86
2022-09-20T04:44:05.939Z,1017.89
2022-09-20T04:45:05.830Z,1017.87
2022-09-20T04:46:05.925Z,1017.88
2022-09-20T04:47:05.824Z,1017.88
2022-09-20T04:48:05.820Z,1017.88
2022-09-20T04:49:05.826Z,1017.91
2022-09-20T04:50:05.833Z,1017.87
2022-09-20T04:51:05.829Z,1017.88
2022-09-20T04:52:05.823Z,1017.87
2022-09-20T04:53:05.814Z,1017.87
2022-09-20T04:54:05.811Z,1017.91
2022-09-20T04:55:05.819Z,1017.93
2022-09-20T04:56:05.821Z,1017.93
2022-09-20T04:57:05.833Z,1017.93
2022-09-20T04:58:05.816Z,1017.96
2022-09-20T04:59:05.947Z,1017.97
2022-09-20T05:00:05.803Z,1017.93
2022-09-20T05:01:05.920Z,1017.94
2022-09-20T05:02:05.921Z,1017.95
2022-09-20T05:03:05.818Z,1017.94
2022-09-20T05:04:05.810Z,1017.93
2022-09-20T05:05:05.846Z,1017.94
2022-09-20T05:06:05.816Z,1017.94
2022-09-20T05:07:05.839Z,1017.98
2022-09-20T05:08:05.818Z,1017.96
2022-09-20T05:09:05.820Z,1017.91
2022-09-20T05:10:05.854Z,1017.93
2022-09-20T05:11:05.815Z,1017.95
2022-09-20T05:12:05.815Z,1017.97
2022-09-20T05:13:05.812Z,1017.99
2022-09-20T05:14:05.816Z,1017.99
2022-09-20T05:15:05.832Z,1017.98
2022-09-20T05:16:05.862Z,1018.02
2022-09-20T05:17:05.862Z,1018.01
2022-09-20T05:18:05.829Z,1017.98
2022-09-20T05:19:05.818Z,1018.04
2022-09-20T05:20:05.831Z,1018.03
2022-09-20T05:21:05.819Z,1018.03
2022-09-20T05:22:05.836Z,1017.96
2022-09-20T05:23:05.891Z,1018.04
2022-09-20T05:24:08.384Z,1018.01
2022-09-20T05:25:05.813Z,1018.01
2022-09-20T05:26:05.799Z,1018.01
2022-09-20T05:27:05.814Z,1018.06
2022-09-20T05:28:05.819Z,1018.08
2022-09-20T05:29:05.876Z,1018.06
2022-09-20T05:30:05.842Z,1018.07
2022-09-20T05:31:05.821Z,1018.07
2022-09-20T05:32:05.871Z,1018.06
2022-09-20T05:33:05.823Z,1018.09
2022-09-20T05:34:05.800Z,1018.1
2022-09-20T05:35:05.902Z,1018.12
2022-09-20T05:36:05.797Z,1018.13
2022-09-20T05:37:05.827Z,1018.14
2022-09-20T05:38:05.840Z,1018.16
2022-09-20T05:39:05.805Z,1018.17
2022-09-20T05:40:05.826Z,1018.19
2022-09-20T05:41:05.814Z,1018.16
2022-09-20T05:42:05.826Z,1018.21
2022-09-20T05:43:05.815Z,1018.22
2022-09-20T05:44:05.916Z,1018.27
2022-09-20T05:45:05.820Z,1018.25
2022-09-20T05:46:05.908Z,1018.27
2022-09-20T05:47:05.826Z,1018.29
2022-09-20T05:48:05.821Z,1018.33
2022-09-20T05:49:05.821Z,1018.34
2022-09-20T05:50:05.886Z,1018.36
2022-09-20T05:51:05.810Z,1018.33
2022-09-20T05:52:05.821Z,1018.34
2022-09-20T05:53:05.813Z,1018.36
2022-09-20T05:54:05.804Z,1018.39
2022-09-20T05:55:05.820Z,1018.39
2022-09-20T05:56:05.814Z,1018.36
2022-09-20T05:57:05.824Z,1018.37
2022-09-20T05:58:05.821Z,1018.36
2022-09-20T05:59:09.375Z,1018.38
2022-09-20T06:00:05.807Z,1018.39
2022-09-20T06:01:05.905Z,1018.38
2022-09-20T06:02:05.841Z,1018.4
2022-09-20T06:03:05.814Z,1018.4
2022-09-20T06:04:05.832Z,1018.42
2022-09-20T06:05:05.839Z,1018.43
2022-09-20T06:06:05.820Z,1018.45
2022-09-20T06:07:05.828Z,1018.43
2022-09-20T06:08:05.817Z,1018.43
2022-09-20T06:09:05.817Z,1018.41
2022-09-20T06:10:05.818Z,1018.45
2022-09-20T06:11:05.822Z,1018.41
2022-09-20T06:12:05.825Z,1018.46
2022-09-20T06:13:05.820Z,1018.41
2022-09-20T06:14:05.923Z,1018.41
2022-09-20T06:15:05.820Z,1018.39
2022-09-20T06:16:05.837Z,1018.4
2022-09-20T06:17:05.819Z,1018.4
2022-09-20T06:18:05.921Z,1018.44
2022-09-20T06:19:05.867Z,1018.44
2022-09-20T06:20:05.850Z,1018.44
2022-09-20T06:21:05.825Z,1018.44
2022-09-20T06:22:05.850Z,1018.44
2022-09-20T06:23:05.812Z,1018.47
2022-09-20T06:24:05.818Z,1018.43
2022-09-20T06:25:05.810Z,1018.46
2022-09-20T06:26:05.822Z,1018.46
2022-09-20T06:27:05.821Z,1018.47
2022-09-20T06:28:05.818Z,1018.44
2022-09-20T06:29:05.817Z,1018.47
2022-09-20T06:30:05.815Z,1018.44
2022-09-20T06:31:05.918Z,1018.47
2022-09-20T06:32:05.827Z,1018.43
2022-09-20T06:33:05.807Z,1018.45
2022-09-20T06:34:05.810Z,1018.44
2022-09-20T06:35:05.832Z,1018.47
2022-09-20T06:36:05.824Z,1018.52
2022-09-20T06:37:05.812Z,1018.5
2022-09-20T06:38:05.799Z,1018.5
2022-09-20T06:39:05.812Z,1018.54
2022-09-20T06:40:05.877Z,1018.48
2022-09-20T06:41:05.800Z,1018.47
2022-09-20T06:42:05.819Z,1018.47
2022-09-20T06:43:05.811Z,1018.48
2022-09-20T06:44:05.909Z,1018.49
2022-09-20T06:45:05.802Z,1018.48
2022-09-20T06:46:05.830Z,1018.48
2022-09-20T06:47:05.820Z,1018.5
2022-09-20T06:48:05.811Z,1018.49
2022-09-20T06:49:05.807Z,1018.48
2022-09-20T06:50:05.866Z,1018.54
2022-09-20T06:51:05.813Z,1018.47
2022-09-20T06:52:05.825Z,1018.5
2022-09-20T06:53:05.825Z,1018.53
2022-09-20T06:54:05.828Z,1018.52
2022-09-20T06:55:05.815Z,1018.55
2022-09-20T06:56:05.819Z,1018.52
2022-09-20T06:57:05.822Z,1018.57
2022-09-20T06:58:05.810Z,1018.57
2022-09-20T06:59:05.905Z,1018.6
2022-09-20T07:00:05.833Z,1018.6
2022-09-20T07:01:05.875Z,1018.65
2022-09-20T07:02:05.917Z,1018.64
2022-09-20T07:03:05.812Z,1018.66
2022-09-20T07:04:05.814Z,1018.63
2022-09-20T07:05:05.836Z,1018.67
2022-09-20T07:06:05.804Z,1018.66
2022-09-20T07:07:09.236Z,1018.72
2022-09-20T07:08:05.815Z,1018.74
2022-09-20T07:09:05.819Z,1018.73
2022-09-20T07:10:05.811Z,1018.78
2022-09-20T07:11:05.807Z,1018.81
2022-09-20T07:12:05.820Z,1018.78
2022-09-20T07:13:05.822Z,1018.86
2022-09-20T07:14:05.933Z,1018.85
2022-09-20T07:15:05.816Z,1018.89
2022-09-20T07:16:05.920Z,1018.88
2022-09-20T07:17:05.827Z,1018.9
2022-09-20T07:18:05.815Z,1018.94
2022-09-20T07:19:05.812Z,1018.93
2022-09-20T07:20:05.843Z,1018.95
2022-09-20T07:21:05.811Z,1018.95
2022-09-20T07:22:05.821Z,1018.93
2022-09-20T07:23:05.812Z,1018.95
2022-09-20T07:24:05.811Z,1018.97
2022-09-20T07:25:05.822Z,1018.97
2022-09-20T07:26:05.834Z,1018.98
2022-09-20T07:27:05.820Z,1018.96
2022-09-20T07:28:05.813Z,1018.94
2022-09-20T07:29:05.971Z,1018.97
2022-09-20T07:30:05.823Z,1018.95
2022-09-20T07:31:05.814Z,1019.02
2022-09-20T07:32:05.848Z,1019.02
2022-09-20T07:33:05.809Z,1019.02
2022-09-20T07:34:05.809Z,1019.02
2022-09-20T07:35:05.901Z,1019.11
2022-09-20T07:36:05.813Z,1019.1
2022-09-20T07:37:05.814Z,1019.08
2022-09-20T07:38:05.813Z,1019.1
2022-09-20T07:39:05.808Z,1019.14
2022-09-20T07:40:05.876Z,1019.14
2022-09-20T07:44:05.954Z,1019.2
2022-09-20T07:45:05.816Z,1019.23
2022-09-20T07:46:05.869Z,1019.27
2022-09-20T07:47:05.810Z,1019.25
2022-09-20T07:48:05.803Z,1019.27
2022-09-20T07:49:05.818Z,1019.28
2022-09-20T07:50:05.829Z,1019.28
2022-09-20T07:51:08.571Z,1019.25
2022-09-20T07:52:05.816Z,1019.27
2022-09-20T07:53:05.815Z,1019.25
2022-09-20T07:54:05.810Z,1019.27
2022-09-20T07:55:05.795Z,1019.29
2022-09-20T07:56:05.812Z,1019.31
2022-09-20T07:57:05.811Z,1019.32
2022-09-20T07:58:05.815Z,1019.31
2022-09-20T07:59:05.970Z,1019.36
2022-09-20T08:00:05.913Z,1019.34
2022-09-20T08:01:05.871Z,1019.33
2022-09-20T08:02:05.855Z,1019.28
2022-09-20T08:03:05.806Z,1019.32
2022-09-20T08:04:05.817Z,1019.29
2022-09-20T08:05:05.831Z,1019.27
2022-09-20T08:06:05.850Z,1019.23
2022-09-20T08:07:05.816Z,1019.24
2022-09-20T08:08:05.811Z,1019.23
2022-09-20T08:09:10.239Z,1019.21
2022-09-20T08:10:05.824Z,1019.28
2022-09-20T08:11:05.803Z,1019.28
2022-09-20T08:14:07.447Z,1019.33
2022-09-20T08:15:09.772Z,1019.33
2022-09-20T08:16:05.795Z,1019.32
2022-09-20T08:17:05.822Z,1019.36
2022-09-20T08:18:05.807Z,1019.34
2022-09-20T08:19:05.823Z,1019.36
2022-09-20T08:20:05.850Z,1019.35
2022-09-20T08:21:05.864Z,1019.35
2022-09-20T08:22:05.812Z,1019.33
2022-09-20T08:23:22.593Z,1019.3
2022-09-20T08:24:05.803Z,1019.34
2022-09-20T08:25:05.813Z,1019.36
2022-09-20T08:26:07.705Z,1019.35
2022-09-20T08:27:05.814Z,1019.31
2022-09-20T08:28:05.807Z,1019.34
2022-09-20T08:29:06.046Z,1019.34
2022-09-20T08:30:05.827Z,1019.38
2022-09-20T08:31:05.817Z,1019.39
2022-09-20T08:32:05.821Z,1019.43
2022-09-20T08:33:05.803Z,1019.44
2022-09-20T08:34:05.811Z,1019.45
2022-09-20T08:35:05.818Z,1019.4
2022-09-20T08:36:05.807Z,1019.43
2022-09-20T08:37:05.812Z,1019.5
2022-09-20T08:40:05.859Z,1019.48
2022-09-20T08:41:05.805Z,1019.47
2022-09-20T08:42:05.808Z,1019.48
2022-09-20T08:43:05.832Z,1019.48
2022-09-20T08:44:05.958Z,1019.53
2022-09-20T08:45:05.807Z,1019.5
2022-09-20T08:46:06.018Z,1019.54
2022-09-20T08:47:05.816Z,1019.55
2022-09-20T08:48:05.817Z,1019.56
2022-09-20T08:49:10.612Z,1019.56
2022-09-20T08:50:09.837Z,1019.56
2022-09-20T08:51:05.916Z,1019.59
2022-09-20T08:52:10.318Z,1019.59
2022-09-20T08:53:05.806Z,1019.58
2022-09-20T08:54:05.812Z,1019.58
2022-09-20T08:55:07.480Z,1019.6
2022-09-20T08:56:05.812Z,1019.59
2022-09-20T08:57:05.804Z,1019.57
2022-09-20T08:58:08.687Z,1019.58
2022-09-20T08:59:05.813Z,1019.6
2022-09-20T09:00:05.834Z,1019.59
2022-09-20T09:01:05.877Z,1019.6
2022-09-20T09:02:05.874Z,1019.6
2022-09-20T09:03:05.795Z,1019.62
2022-09-20T09:04:05.939Z,1019.58
2022-09-20T09:05:05.991Z,1019.61
2022-09-20T09:06:10.751Z,1019.59
2022-09-20T09:07:05.829Z,1019.61
2022-09-20T09:08:05.843Z,1019.64
2022-09-20T09:09:05.810Z,1019.66
2022-09-20T09:10:05.810Z,1019.67
2022-09-20T09:11:05.795Z,1019.71
2022-09-20T09:12:05.819Z,1019.72
2022-09-20T09:13:05.801Z,1019.74
2022-09-20T09:14:05.883Z,1019.8
2022-09-20T09:15:05.795Z,1019.8
2022-09-20T09:16:05.806Z,1019.8
2022-09-20T09:17:05.876Z,1019.89
2022-09-20T09:18:05.800Z,1019.88
2022-09-20T09:19:05.947Z,1019.89
2022-09-20T09:20:05.841Z,1019.87
2022-09-20T09:21:05.808Z,1019.87
2022-09-20T09:22:05.842Z,1019.89
2022-09-20T09:23:05.804Z,1019.88
2022-09-20T09:24:05.805Z,1019.88
2022-09-20T09:25:05.803Z,1019.92
2022-09-20T09:26:05.813Z,1019.89
2022-09-20T09:27:05.827Z,1019.88
2022-09-20T09:28:05.814Z,1019.84
2022-09-20T09:29:05.806Z,1019.89
2022-09-20T09:30:05.849Z,1019.84
2022-09-20T09:31:05.802Z,1019.82
2022-09-20T09:32:05.881Z,1019.84
2022-09-20T09:33:05.804Z,1019.82
2022-09-20T09:34:05.925Z,1019.82
2022-09-20T09:35:05.825Z,1019.81
2022-09-20T09:36:05.816Z,1019.75
2022-09-20T09:37:05.819Z,1019.8
2022-09-20T09:38:05.807Z,1019.79
2022-09-20T09:39:05.802Z,1019.8
2022-09-20T09:40:05.844Z,1019.8
2022-09-20T09:41:05.804Z,1019.79
2022-09-20T09:42:05.809Z,1019.8
2022-09-20T09:43:05.802Z,1019.82
2022-09-20T09:44:05.805Z,1019.83
2022-09-20T09:45:05.812Z,1019.82
2022-09-20T09:46:05.892Z,1019.8
2022-09-20T09:47:05.817Z,1019.83
2022-09-20T09:48:05.806Z,1019.79
2022-09-20T09:49:07.414Z,1019.8
2022-09-20T09:50:09.731Z,1019.79
2022-09-20T09:51:05.809Z,1019.79
2022-09-20T09:52:05.821Z,1019.78
2022-09-20T09:53:05.803Z,1019.79
2022-09-20T09:54:05.833Z,1019.81
2022-09-20T09:55:06.122Z,1019.79
2022-09-20T09:56:05.808Z,1019.85
2022-09-20T09:57:05.817Z,1019.82
2022-09-20T09:58:05.811Z,1019.81
2022-09-20T09:59:05.798Z,1019.79
2022-09-20T10:00:12.307Z,1019.8
2022-09-20T10:01:05.869Z,1019.81
2022-09-20T10:02:05.850Z,1019.83
2022-09-20T10:03:05.809Z,1019.8
2022-09-20T10:04:05.966Z,1019.8
2022-09-20T10:05:06.000Z,1019.78
2022-09-20T10:06:05.804Z,1019.78
2022-09-20T10:07:05.820Z,1019.77
2022-09-20T10:08:05.808Z,1019.84
2022-09-20T10:09:05.809Z,1019.84
2022-09-20T10:10:05.798Z,1019.8
2022-09-20T10:11:05.811Z,1019.78
2022-09-20T10:12:05.821Z,1019.77
2022-09-20T10:13:05.801Z,1019.78
2022-09-20T10:14:05.812Z,1019.79
2022-09-20T10:15:05.805Z,1019.74
2022-09-20T10:16:05.873Z,1019.78
2022-09-20T10:17:05.815Z,1019.77
2022-09-20T10:18:05.814Z,1019.77
2022-09-20T10:19:05.882Z,1019.75
2022-09-20T10:20:05.858Z,1019.78
2022-09-20T10:21:05.816Z,1019.78
2022-09-20T10:22:05.809Z,1019.72
2022-09-20T10:23:34.470Z,1019.72
2022-09-20T10:24:05.801Z,1019.73
2022-09-20T10:25:05.799Z,1019.77
2022-09-20T10:26:05.796Z,1019.77
2022-09-20T10:27:05.826Z,1019.74
2022-09-20T10:28:05.794Z,1019.74
2022-09-20T10:29:05.810Z,1019.73
2022-09-20T10:30:05.821Z,1019.68
2022-09-20T10:31:05.920Z,1019.66
2022-09-20T10:32:05.815Z,1019.66
2022-09-20T10:33:05.804Z,1019.68
2022-09-20T10:34:05.898Z,1019.72
2022-09-20T10:35:05.840Z,1019.69
2022-09-20T10:36:05.801Z,1019.65
2022-09-20T10:37:05.809Z,1019.71
2022-09-20T10:38:05.801Z,1019.68
2022-09-20T10:39:05.818Z,1019.66
2022-09-20T10:40:05.891Z,1019.63
2022-09-20T10:41:05.805Z,1019.67
2022-09-20T10:42:05.818Z,1019.66
2022-09-20T10:43:05.806Z,1019.62
2022-09-20T10:44:05.991Z,1019.63
2022-09-20T10:45:05.813Z,1019.62
2022-09-20T10:46:30.699Z,1019.65
2022-09-20T10:47:05.867Z,1019.64
2022-09-20T10:48:05.807Z,1019.63
2022-09-20T10:49:05.950Z,1019.62
2022-09-20T10:50:05.836Z,1019.57
2022-09-20T10:51:05.799Z,1019.63
2022-09-20T10:52:05.810Z,1019.61
2022-09-20T10:53:05.798Z,1019.64
2022-09-20T10:54:05.800Z,1019.61
2022-09-20T10:55:05.817Z,1019.58
2022-09-20T10:56:05.835Z,1019.58
2022-09-20T10:57:05.821Z,1019.59
2022-09-20T10:58:05.810Z,1019.56
2022-09-20T10:59:05.809Z,1019.6
2022-09-20T11:00:05.823Z,1019.62
2022-09-20T11:01:05.830Z,1019.62
2022-09-20T11:02:05.850Z,1019.58
2022-09-20T11:03:05.800Z,1019.58
2022-09-20T11:04:05.950Z,1019.58
2022-09-20T11:05:05.824Z,1019.61
2022-09-20T11:06:05.827Z,1019.66
2022-09-20T11:07:05.827Z,1019.67
2022-09-20T11:08:05.892Z,1019.7
2022-09-20T11:09:05.800Z,1019.68
2022-09-20T11:10:05.818Z,1019.65
2022-09-20T11:11:05.813Z,1019.65
2022-09-20T11:12:05.812Z,1019.63
2022-09-20T11:13:05.805Z,1019.64
2022-09-20T11:14:05.799Z,1019.63
2022-09-20T11:15:05.807Z,1019.58
2022-09-20T11:16:05.932Z,1019.56
2022-09-20T11:17:05.822Z,1019.55
2022-09-20T11:18:05.813Z,1019.57
2022-09-20T11:19:05.905Z,1019.59
2022-09-20T11:20:07.703Z,1019.6
2022-09-20T11:21:05.804Z,1019.6
2022-09-20T11:22:05.809Z,1019.58
2022-09-20T11:23:05.804Z,1019.6
2022-09-20T11:24:05.807Z,1019.57
2022-09-20T11:25:05.804Z,1019.55
2022-09-20T11:26:05.811Z,1019.55
2022-09-20T11:27:05.811Z,1019.55
2022-09-20T11:28:05.801Z,1019.55
2022-09-20T11:29:05.808Z,1019.54
2022-09-20T11:30:05.830Z,1019.53
2022-09-20T11:31:05.808Z,1019.57
2022-09-20T11:32:05.829Z,1019.62
2022-09-20T11:33:05.800Z,1019.55
2022-09-20T11:34:05.795Z,1019.53
2022-09-20T11:35:05.824Z,1019.53
2022-09-20T11:36:05.883Z,1019.57
2022-09-20T11:37:05.821Z,1019.55
2022-09-20T11:38:05.802Z,1019.52
2022-09-20T11:39:05.932Z,1019.49
2022-09-20T11:40:05.909Z,1019.49
2022-09-20T11:41:05.805Z,1019.56
2022-09-20T11:42:05.825Z,1019.58
2022-09-20T11:43:05.803Z,1019.52
2022-09-20T11:44:05.810Z,1019.49
2022-09-20T11:45:05.797Z,1019.53
2022-09-20T11:46:05.879Z,1019.49
2022-09-20T11:47:05.822Z,1019.53
2022-09-20T11:48:05.810Z,1019.52
2022-09-20T11:49:05.800Z,1019.52
2022-09-20T11:50:05.861Z,1019.48
2022-09-20T11:51:05.806Z,1019.49
2022-09-20T11:52:05.817Z,1019.47
2022-09-20T11:53:05.810Z,1019.43
2022-09-20T11:54:05.918Z,1019.4
2022-09-20T11:55:05.838Z,1019.48
2022-09-20T11:56:05.795Z,1019.47
2022-09-20T11:57:05.814Z,1019.48
2022-09-20T11:58:05.808Z,1019.46
2022-09-20T11:59:05.937Z,1019.58
2022-09-20T12:00:05.825Z,1019.55
2022-09-20T12:01:05.807Z,1019.54
2022-09-20T12:02:05.906Z,1019.52
2022-09-20T12:03:05.950Z,1019.54
2022-09-20T12:04:31.145Z,1019.57
2022-09-20T12:05:05.830Z,1019.56
2022-09-20T12:06:05.830Z,1019.57
2022-09-20T12:07:09.654Z,1019.62
2022-09-20T12:08:05.808Z,1019.56
2022-09-20T12:09:05.858Z,1019.59
2022-09-20T12:10:05.856Z,1019.58
2022-09-20T12:11:05.810Z,1019.57
2022-09-20T12:12:05.808Z,1019.6
2022-09-20T12:13:05.811Z,1019.55
2022-09-20T12:14:05.800Z,1019.53
2022-09-20T12:15:05.810Z,1019.54
2022-09-20T12:16:05.895Z,1019.47